createdAt,value
2023-05-14T00:02:13.242Z,10.63
2023-05-14T00:04:43.081Z,10.68
2023-05-14T00:07:11.795Z,10.67
2023-05-14T00:09:39.609Z,10.61
2023-05-14T00:12:08.102Z,10.57
2023-05-14T00:14:35.967Z,10.61
2023-05-14T00:17:06.958Z,10.60
2023-05-14T00:19:34.903Z,10.63
2023-05-14T00:22:04.233Z,10.61
2023-05-14T00:24:32.232Z,10.63
2023-05-14T00:27:00.036Z,10.64
2023-05-14T00:29:28.053Z,10.74
2023-05-14T00:31:55.977Z,10.74
2023-05-14T00:34:23.912Z,10.68
2023-05-14T00:36:52.195Z,10.66
2023-05-14T00:39:21.473Z,10.71
2023-05-14T00:41:49.647Z,10.65
2023-05-14T00:44:17.457Z,10.56
2023-05-14T00:46:45.452Z,10.60
2023-05-14T00:49:13.442Z,10.62
2023-05-14T00:51:42.484Z,10.53
2023-05-14T00:54:10.599Z,10.49
2023-05-14T00:56:40.042Z,10.43
2023-05-14T00:59:08.052Z,10.35
2023-05-14T01:01:37.046Z,10.35
2023-05-14T01:04:06.048Z,10.33
2023-05-14T01:06:43.500Z,10.35
2023-05-14T01:09:19.040Z,10.32
2023-05-14T01:11:56.847Z,10.33
2023-05-14T01:14:34.249Z,10.27
2023-05-14T01:17:06.227Z,10.24
2023-05-14T01:19:38.535Z,10.14
2023-05-14T01:22:08.204Z,10.16
2023-05-14T01:24:36.205Z,10.12
2023-05-14T01:27:11.550Z,10.08
2023-05-14T01:29:44.318Z,10.01
2023-05-14T01:32:13.546Z,9.87
2023-05-14T01:34:42.207Z,9.84
2023-05-14T01:37:13.993Z,9.76
2023-05-14T01:39:43.261Z,9.63
2023-05-14T01:42:12.095Z,9.69
2023-05-14T01:44:40.200Z,9.69
2023-05-14T01:47:08.116Z,9.70
2023-05-14T01:49:37.150Z,9.78
2023-05-14T01:52:05.343Z,9.73
2023-05-14T01:54:34.742Z,9.76
2023-05-14T01:57:02.540Z,9.78
2023-05-14T01:59:30.572Z,9.83
2023-05-14T02:02:01.972Z,9.90
2023-05-14T02:04:29.866Z,9.87
2023-05-14T02:06:57.593Z,9.83
2023-05-14T02:09:25.692Z,9.71
2023-05-14T02:11:55.114Z,9.58
2023-05-14T02:14:22.896Z,9.52
2023-05-14T02:16:51.433Z,9.42
2023-05-14T02:19:19.249Z,9.39
2023-05-14T02:21:47.154Z,9.35
2023-05-14T02:24:15.111Z,9.28
2023-05-14T02:26:43.156Z,9.24
2023-05-14T02:29:12.361Z,9.13
2023-05-14T02:31:40.286Z,9.09
2023-05-14T02:34:08.112Z,9.05
2023-05-14T02:36:36.036Z,9.01
2023-05-14T02:39:04.625Z,8.98
2023-05-14T02:41:32.403Z,8.92
2023-05-14T02:44:00.217Z,8.87
2023-05-14T02:46:29.616Z,8.83
2023-05-14T02:48:57.684Z,8.83
2023-05-14T02:51:26.500Z,8.86
2023-05-14T02:53:54.325Z,8.91
2023-05-14T02:56:22.318Z,9.01
2023-05-14T02:58:50.097Z,9.12
2023-05-14T03:01:18.803Z,9.28
2023-05-14T03:03:49.870Z,9.41
2023-05-14T03:06:18.186Z,9.56
2023-05-14T03:08:46.181Z,9.71
2023-05-14T03:11:14.047Z,9.80
2023-05-14T03:13:41.836Z,9.94
2023-05-14T03:16:09.655Z,10.06
2023-05-14T03:18:37.519Z,10.13
2023-05-14T03:21:06.708Z,10.26
2023-05-14T03:23:35.166Z,10.33
2023-05-14T03:26:03.858Z,10.40
2023-05-14T03:28:31.961Z,10.43
2023-05-14T03:30:59.929Z,10.44
2023-05-14T03:33:27.751Z,10.38
2023-05-14T03:35:55.537Z,10.43
2023-05-14T03:38:24.650Z,10.45
2023-05-14T03:40:52.660Z,10.41
2023-05-14T03:43:20.468Z,10.39
2023-05-14T03:45:52.222Z,10.38
2023-05-14T03:48:20.586Z,10.32
2023-05-14T03:50:48.482Z,10.32
2023-05-14T03:53:16.783Z,10.38
2023-05-14T03:55:46.177Z,10.32
2023-05-14T03:58:14.722Z,10.32
2023-05-14T04:00:42.730Z,10.37
2023-05-14T04:03:11.265Z,10.37
2023-05-14T04:05:43.104Z,10.39
2023-05-14T04:08:10.822Z,10.49
2023-05-14T04:10:38.580Z,10.52
2023-05-14T04:13:08.203Z,10.52
2023-05-14T04:15:39.244Z,10.59
2023-05-14T04:18:07.426Z,10.67
2023-05-14T04:20:35.382Z,10.73
2023-05-14T04:23:03.125Z,10.79
2023-05-14T04:25:31.004Z,10.78
2023-05-14T04:27:59.060Z,10.87
2023-05-14T04:30:28.442Z,10.91
2023-05-14T04:32:56.404Z,10.97
2023-05-14T04:35:25.202Z,11.00
2023-05-14T04:37:53.277Z,11.07
2023-05-14T04:40:22.977Z,11.23
2023-05-14T04:42:51.121Z,11.49
2023-05-14T04:45:19.210Z,11.78
2023-05-14T04:47:48.552Z,11.90
2023-05-14T04:50:16.767Z,12.03
2023-05-14T04:52:44.564Z,12.17
2023-05-14T04:55:12.299Z,12.28
2023-05-14T04:57:40.081Z,12.39
2023-05-14T05:00:10.178Z,12.54
2023-05-14T05:02:38.093Z,12.71
2023-05-14T05:05:07.768Z,12.90
2023-05-14T05:07:36.942Z,12.96
2023-05-14T05:10:04.879Z,13.48
2023-05-14T05:12:32.706Z,14.08
2023-05-14T05:15:00.581Z,14.52
2023-05-14T05:17:28.489Z,15.04
2023-05-14T05:19:56.320Z,15.90
2023-05-14T05:22:25.783Z,15.68
2023-05-14T05:24:53.563Z,15.55
2023-05-14T05:27:22.090Z,15.53
2023-05-14T05:29:49.780Z,15.20
2023-05-14T05:32:17.646Z,14.89
2023-05-14T05:34:45.478Z,14.84
2023-05-14T05:37:14.883Z,14.88
2023-05-14T05:39:44.263Z,14.96
2023-05-14T05:42:11.925Z,15.08
2023-05-14T05:44:39.691Z,15.75
2023-05-14T05:47:07.622Z,17.22
2023-05-14T05:49:36.846Z,18.24
2023-05-14T05:52:05.097Z,18.84
2023-05-14T05:54:33.303Z,19.58
2023-05-14T05:57:02.503Z,20.72
2023-05-14T05:59:30.224Z,21.66
2023-05-14T06:01:58.009Z,21.89
2023-05-14T06:04:25.947Z,22.67
2023-05-14T06:06:54.252Z,22.62
2023-05-14T06:09:22.140Z,23.50
2023-05-14T06:11:49.946Z,24.10
2023-05-14T06:14:19.271Z,24.45
2023-05-14T06:16:47.138Z,23.48
2023-05-14T06:19:15.256Z,23.07
2023-05-14T06:21:43.070Z,22.49
2023-05-14T06:24:11.389Z,22.64
2023-05-14T06:26:39.064Z,22.07
2023-05-14T06:29:06.889Z,21.42
2023-05-14T06:31:36.078Z,20.95
2023-05-14T06:34:03.995Z,20.57
2023-05-14T06:36:31.712Z,20.25
2023-05-14T06:38:59.421Z,20.09
2023-05-14T06:41:27.179Z,20.03
2023-05-14T06:43:55.247Z,19.90
2023-05-14T06:46:23.059Z,20.01
2023-05-14T06:48:52.378Z,20.45
2023-05-14T06:51:20.183Z,20.81
2023-05-14T06:53:48.804Z,20.96
2023-05-14T06:56:16.595Z,20.67
2023-05-14T06:58:44.313Z,20.71
2023-05-14T07:01:12.180Z,20.59
2023-05-14T07:03:40.170Z,20.34
2023-05-14T07:06:10.357Z,20.06
2023-05-14T07:08:40.216Z,19.81
2023-05-14T07:11:08.188Z,19.67
2023-05-14T07:13:36.291Z,19.43
2023-05-14T07:16:03.981Z,19.30
2023-05-14T07:18:31.763Z,19.13
2023-05-14T07:20:59.491Z,18.90
2023-05-14T07:23:28.786Z,18.82
2023-05-14T07:25:56.550Z,18.80
2023-05-14T07:28:24.233Z,18.85
2023-05-14T07:30:52.016Z,18.77
2023-05-14T07:33:19.782Z,18.78
2023-05-14T07:35:47.610Z,18.77
2023-05-14T07:38:15.827Z,18.75
2023-05-14T07:40:44.992Z,18.85
2023-05-14T07:43:12.850Z,19.05
2023-05-14T07:45:40.838Z,19.14
2023-05-14T07:48:09.010Z,19.18
2023-05-14T07:50:37.994Z,19.35
2023-05-14T07:53:05.717Z,19.42
2023-05-14T07:55:33.412Z,19.27
2023-05-14T07:58:02.668Z,19.23
2023-05-14T08:00:30.724Z,19.32
2023-05-14T08:02:58.720Z,19.33
2023-05-14T08:05:26.682Z,19.44
2023-05-14T08:07:54.631Z,19.40
2023-05-14T08:10:22.516Z,19.36
2023-05-14T08:12:51.605Z,19.36
2023-05-14T08:15:21.042Z,19.40
2023-05-14T08:17:48.816Z,19.35
2023-05-14T08:20:16.578Z,19.30
2023-05-14T08:22:44.387Z,19.22
2023-05-14T08:25:12.566Z,19.31
2023-05-14T08:27:41.203Z,19.43
2023-05-14T08:30:09.755Z,19.37
2023-05-14T08:32:39.411Z,19.37
2023-05-14T08:35:08.288Z,19.25
2023-05-14T08:37:36.045Z,19.27
2023-05-14T08:40:04.066Z,19.41
2023-05-14T08:42:32.664Z,19.50
2023-05-14T08:45:03.140Z,19.66
2023-05-14T08:47:32.015Z,19.67
2023-05-14T08:50:04.436Z,19.65
2023-05-14T08:52:32.482Z,19.52
2023-05-14T08:55:01.412Z,19.50
2023-05-14T08:57:31.187Z,19.48
2023-05-14T09:00:01.297Z,19.92
2023-05-14T09:02:30.283Z,20.19
2023-05-14T09:05:01.948Z,20.44
2023-05-14T09:07:30.108Z,20.68
2023-05-14T09:09:58.057Z,20.71
2023-05-14T09:12:26.231Z,20.89
2023-05-14T09:14:54.163Z,20.76
2023-05-14T09:17:22.211Z,20.90
2023-05-14T09:19:53.161Z,21.13
2023-05-14T09:22:23.065Z,20.99
2023-05-14T09:25:05.066Z,21.38
2023-05-14T09:27:34.218Z,21.64
2023-05-14T09:30:10.817Z,21.55
2023-05-14T09:32:46.211Z,21.65
2023-05-14T09:35:17.650Z,21.76
2023-05-14T09:37:48.639Z,21.84
2023-05-14T09:40:17.642Z,21.98
2023-05-14T09:42:45.626Z,22.12
2023-05-14T09:45:13.774Z,22.48
2023-05-14T09:47:41.730Z,22.47
2023-05-14T09:50:10.050Z,22.70
2023-05-14T09:52:38.431Z,22.99
2023-05-14T09:55:09.024Z,23.07
2023-05-14T09:57:37.177Z,22.91
2023-05-14T10:00:05.851Z,22.99
2023-05-14T10:02:38.819Z,23.07
2023-05-14T10:05:07.981Z,22.99
2023-05-14T10:07:41.479Z,22.90
2023-05-14T10:10:16.424Z,22.89
2023-05-14T10:12:48.537Z,23.41
2023-05-14T10:15:22.654Z,23.72
2023-05-14T10:17:55.752Z,23.83
2023-05-14T10:20:24.682Z,23.06
2023-05-14T10:22:52.976Z,23.20
2023-05-14T10:25:23.202Z,23.11
2023-05-14T10:28:02.050Z,23.35
2023-05-14T10:30:37.141Z,22.67
2023-05-14T10:33:09.641Z,23.09
2023-05-14T10:36:00.043Z,23.19
2023-05-14T10:38:29.233Z,22.82
2023-05-14T10:41:06.257Z,22.94
2023-05-14T10:43:39.971Z,22.83
2023-05-14T10:46:09.633Z,23.12
2023-05-14T10:48:38.737Z,22.82
2023-05-14T10:51:09.248Z,22.77
2023-05-14T10:53:39.237Z,22.80
2023-05-14T10:56:10.696Z,22.55
2023-05-14T10:58:41.630Z,22.36
2023-05-14T11:01:11.216Z,21.77
2023-05-14T11:03:44.887Z,21.53
2023-05-14T11:06:14.933Z,21.48
2023-05-14T11:08:43.786Z,21.67
2023-05-14T11:11:13.045Z,21.90
2023-05-14T11:13:42.252Z,22.09
2023-05-14T11:16:22.950Z,22.20
2023-05-14T11:18:55.279Z,22.20
2023-05-14T11:21:23.333Z,22.41
2023-05-14T11:23:51.596Z,22.49
2023-05-14T11:26:21.829Z,22.47
2023-05-14T11:28:49.987Z,22.59
2023-05-14T11:31:18.001Z,22.63
2023-05-14T11:33:45.886Z,22.70
2023-05-14T11:36:13.995Z,22.81
2023-05-14T11:38:48.741Z,22.59
2023-05-14T11:41:16.519Z,22.54
2023-05-14T11:43:45.765Z,22.39
2023-05-14T11:46:18.068Z,22.40
2023-05-14T11:48:46.003Z,22.44
2023-05-14T11:51:14.022Z,22.49
2023-05-14T11:53:42.101Z,22.44
2023-05-14T11:56:10.164Z,22.30
2023-05-14T11:58:38.089Z,22.22
2023-05-14T12:01:07.426Z,22.11
2023-05-14T12:03:36.313Z,22.16
2023-05-14T12:06:08.208Z,22.19
2023-05-14T12:08:36.278Z,22.37
2023-05-14T12:11:04.553Z,22.41
2023-05-14T12:13:35.432Z,22.38
2023-05-14T12:16:03.894Z,22.57
2023-05-14T12:18:34.229Z,22.49
2023-05-14T12:21:04.449Z,22.44
2023-05-14T12:23:33.053Z,22.59
2023-05-14T12:26:02.910Z,22.81
2023-05-14T12:28:31.028Z,22.60
2023-05-14T12:30:59.647Z,22.70
2023-05-14T12:33:28.501Z,22.93
2023-05-14T12:36:07.414Z,23.13
2023-05-14T12:38:47.981Z,22.98
2023-05-14T12:41:15.801Z,22.77
2023-05-14T12:43:44.635Z,22.66
2023-05-14T12:46:12.651Z,22.57
2023-05-14T12:48:40.536Z,22.50
2023-05-14T12:51:09.742Z,22.27
2023-05-14T12:53:37.596Z,22.16
2023-05-14T12:56:06.107Z,21.73
2023-05-14T12:58:33.891Z,21.71
2023-05-14T13:01:01.911Z,21.33
2023-05-14T13:03:29.750Z,21.32
2023-05-14T13:05:57.589Z,21.23
2023-05-14T13:08:27.351Z,21.29
2023-05-14T13:10:56.480Z,21.28
2023-05-14T13:13:24.886Z,21.31
2023-05-14T13:15:53.941Z,21.27
2023-05-14T13:18:21.856Z,21.36
2023-05-14T13:20:53.164Z,21.40
2023-05-14T13:23:21.033Z,21.21
2023-05-14T13:25:50.781Z,21.27
2023-05-14T13:28:19.628Z,21.11
2023-05-14T13:31:07.736Z,21.01
2023-05-14T13:33:37.097Z,21.00
2023-05-14T13:36:05.797Z,20.94
2023-05-14T13:38:34.322Z,20.76
2023-05-14T13:41:03.861Z,20.83
2023-05-14T13:43:32.075Z,20.87
2023-05-14T13:46:00.306Z,20.81
2023-05-14T13:48:28.785Z,20.88
2023-05-14T13:50:56.698Z,20.93
2023-05-14T13:53:26.137Z,20.94
2023-05-14T13:55:58.107Z,21.01
2023-05-14T13:58:28.194Z,21.08
2023-05-14T14:00:56.654Z,21.13
2023-05-14T14:03:24.525Z,21.23
2023-05-14T14:05:52.728Z,21.28
2023-05-14T14:08:23.314Z,21.42
2023-05-14T14:10:52.022Z,21.58
2023-05-14T14:13:21.197Z,21.71
2023-05-14T14:15:51.166Z,21.71
2023-05-14T14:18:19.157Z,21.91
2023-05-14T14:20:46.897Z,22.19
2023-05-14T14:23:16.311Z,22.31
2023-05-14T14:25:44.370Z,22.20
2023-05-14T14:28:12.486Z,22.34
2023-05-14T14:30:40.556Z,22.45
2023-05-14T14:33:10.057Z,22.19
2023-05-14T14:35:37.939Z,21.90
2023-05-14T14:38:05.720Z,22.20
2023-05-14T14:40:34.351Z,22.53
2023-05-14T14:43:02.303Z,22.53
2023-05-14T14:45:30.221Z,22.79
2023-05-14T14:48:31.445Z,22.78
2023-05-14T14:50:59.332Z,22.75
2023-05-14T14:53:27.125Z,22.99
2023-05-14T14:55:55.136Z,23.07
2023-05-14T14:58:23.653Z,22.97
2023-05-14T15:00:53.987Z,22.66
2023-05-14T15:03:22.733Z,22.14
2023-05-14T15:05:53.260Z,21.84
2023-05-14T15:08:21.840Z,21.70
2023-05-14T15:10:49.716Z,21.69
2023-05-14T15:13:17.655Z,21.57
2023-05-14T15:15:45.540Z,21.47
2023-05-14T15:18:13.489Z,21.62
2023-05-14T15:20:41.326Z,21.54
2023-05-14T15:23:11.544Z,21.54
2023-05-14T15:25:40.366Z,21.57
2023-05-14T15:28:08.124Z,21.57
2023-05-14T15:30:36.264Z,21.57
2023-05-14T15:33:04.251Z,21.63
2023-05-14T15:35:32.161Z,21.58
2023-05-14T15:38:00.025Z,21.48
2023-05-14T15:40:29.582Z,21.51
2023-05-14T15:42:57.433Z,21.45
2023-05-14T15:45:25.318Z,21.39
2023-05-14T15:47:53.208Z,21.41
2023-05-14T15:50:21.549Z,21.57
2023-05-14T15:52:49.793Z,21.47
2023-05-14T15:55:17.788Z,21.36
2023-05-14T15:57:47.081Z,21.32
2023-05-14T16:00:15.528Z,21.31
2023-05-14T16:02:43.545Z,21.28
2023-05-14T16:05:11.436Z,21.32
2023-05-14T16:07:39.503Z,21.32
2023-05-14T16:10:08.380Z,21.26
2023-05-14T16:12:36.378Z,21.21
2023-05-14T16:15:07.854Z,21.09
2023-05-14T16:17:35.992Z,20.99
2023-05-14T16:20:04.839Z,20.97
2023-05-14T16:22:34.676Z,20.93
2023-05-14T16:25:03.530Z,20.87
2023-05-14T16:27:31.616Z,20.84
2023-05-14T16:29:59.474Z,20.70
2023-05-14T16:32:28.792Z,20.75
2023-05-14T16:34:56.726Z,20.61
2023-05-14T16:37:26.598Z,20.57
2023-05-14T16:39:54.923Z,20.53
2023-05-14T16:42:22.742Z,20.42
2023-05-14T16:44:50.528Z,20.33
2023-05-14T16:47:18.378Z,20.21
2023-05-14T16:49:47.488Z,20.14
2023-05-14T16:52:15.415Z,20.06
2023-05-14T16:54:43.216Z,19.89
2023-05-14T16:57:11.047Z,19.77
2023-05-14T16:59:38.835Z,19.74
2023-05-14T17:02:07.064Z,19.65
2023-05-14T17:04:38.783Z,19.59
2023-05-14T17:07:08.129Z,19.51
2023-05-14T17:09:35.971Z,19.47
2023-05-14T17:12:03.911Z,19.46
2023-05-14T17:14:31.772Z,19.43
2023-05-14T17:16:59.526Z,19.37
2023-05-14T17:19:27.284Z,19.40
2023-05-14T17:21:55.102Z,19.38
2023-05-14T17:24:24.278Z,19.41
2023-05-14T17:26:52.063Z,19.40
2023-05-14T17:29:19.994Z,19.41
2023-05-14T17:31:48.258Z,19.43
2023-05-14T17:34:16.246Z,19.43
2023-05-14T17:36:44.089Z,19.39
2023-05-14T17:39:11.888Z,19.34
2023-05-14T17:41:41.992Z,19.30
2023-05-14T17:44:12.084Z,19.24
2023-05-14T17:46:41.577Z,19.13
2023-05-14T17:49:09.614Z,19.07
2023-05-14T17:51:37.356Z,18.95
2023-05-14T17:54:05.281Z,18.78
2023-05-14T17:56:33.235Z,18.56
2023-05-14T17:59:02.751Z,18.34
2023-05-14T18:01:30.809Z,18.14
2023-05-14T18:03:58.839Z,17.96
2023-05-14T18:06:26.730Z,17.82
2023-05-14T18:08:54.631Z,17.71
2023-05-14T18:11:22.443Z,17.59
2023-05-14T18:13:50.255Z,17.45
2023-05-14T18:16:19.514Z,17.41
2023-05-14T18:18:47.713Z,17.36
2023-05-14T18:21:16.284Z,17.29
2023-05-14T18:23:44.392Z,17.19
2023-05-14T18:26:12.238Z,17.10
2023-05-14T18:28:40.093Z,16.99
2023-05-14T18:31:08.899Z,16.98
2023-05-14T18:33:38.232Z,17.00
2023-05-14T18:36:06.453Z,16.96
2023-05-14T18:38:34.206Z,16.91
2023-05-14T18:41:02.074Z,16.87
2023-05-14T18:43:29.998Z,16.85
2023-05-14T18:45:57.912Z,16.82
2023-05-14T18:48:26.349Z,16.75
2023-05-14T18:50:55.508Z,16.71
2023-05-14T18:53:23.274Z,16.73
2023-05-14T18:55:51.134Z,16.71
2023-05-14T18:58:18.982Z,16.71
2023-05-14T19:00:47.009Z,16.73
2023-05-14T19:03:15.177Z,16.67
2023-05-14T19:05:43.000Z,16.60
2023-05-14T19:08:12.112Z,16.55
2023-05-14T19:10:39.985Z,16.56
2023-05-14T19:13:10.402Z,16.47
2023-05-14T19:15:38.428Z,16.35
2023-05-14T19:18:06.445Z,16.25
2023-05-14T19:20:34.330Z,16.10
2023-05-14T19:23:02.041Z,15.93
2023-05-14T19:25:31.246Z,15.88
2023-05-14T19:28:01.536Z,15.79
2023-05-14T19:30:29.456Z,15.86
2023-05-14T19:32:58.226Z,16.07
2023-05-14T19:35:26.225Z,16.16
2023-05-14T19:37:54.079Z,16.14
2023-05-14T19:40:21.807Z,16.10
2023-05-14T19:42:51.128Z,16.13
2023-05-14T19:45:18.838Z,16.07
2023-05-14T19:47:46.704Z,16.00
2023-05-14T19:50:14.701Z,15.97
2023-05-14T19:52:42.480Z,15.95
2023-05-14T19:55:10.522Z,15.92
2023-05-14T19:57:38.989Z,15.88
2023-05-14T20:00:10.473Z,15.87
2023-05-14T20:02:40.932Z,15.85
2023-05-14T20:05:10.570Z,15.77
2023-05-14T20:07:40.394Z,15.75
2023-05-14T20:10:09.450Z,15.75
2023-05-14T20:12:37.274Z,15.71
2023-05-14T20:15:05.640Z,15.61
2023-05-14T20:17:34.777Z,15.55
2023-05-14T20:20:03.024Z,15.48
2023-05-14T20:22:30.784Z,15.42
2023-05-14T20:24:58.514Z,15.39
2023-05-14T20:27:26.303Z,15.31
2023-05-14T20:29:54.207Z,15.33
2023-05-14T20:32:24.736Z,15.32
2023-05-14T20:34:54.422Z,15.32
2023-05-14T20:37:23.959Z,15.35
2023-05-14T20:39:53.075Z,15.29
2023-05-14T20:42:21.074Z,15.36
2023-05-14T20:44:49.699Z,15.33
2023-05-14T20:47:20.366Z,15.31
2023-05-14T20:49:48.288Z,15.29
2023-05-14T20:52:17.843Z,15.28
2023-05-14T20:54:45.755Z,15.24
2023-05-14T20:57:15.256Z,15.21
2023-05-14T20:59:43.375Z,15.24
2023-05-14T21:02:11.826Z,15.19
2023-05-14T21:04:39.967Z,15.21
2023-05-14T21:07:07.971Z,15.17
2023-05-14T21:09:37.169Z,15.13
2023-05-14T21:12:05.613Z,15.12
2023-05-14T21:14:33.369Z,15.04
2023-05-14T21:17:01.181Z,14.97
2023-05-14T21:19:29.034Z,14.89
2023-05-14T21:21:56.718Z,14.82
2023-05-14T21:24:24.437Z,14.75
2023-05-14T21:26:53.751Z,14.71
2023-05-14T21:29:21.615Z,14.67
2023-05-14T21:31:50.199Z,14.65
2023-05-14T21:34:18.069Z,14.58
2023-05-14T21:36:46.814Z,14.45
2023-05-14T21:39:15.724Z,14.36
2023-05-14T21:41:43.554Z,14.29
2023-05-14T21:44:12.784Z,14.19
2023-05-14T21:46:40.536Z,14.11
2023-05-14T21:49:08.458Z,14.03
2023-05-14T21:51:36.231Z,13.97
2023-05-14T21:54:04.076Z,13.86
2023-05-14T21:56:32.108Z,13.76
2023-05-14T21:58:59.974Z,13.66
2023-05-14T22:01:29.424Z,13.63
2023-05-14T22:03:58.006Z,13.59
2023-05-14T22:06:26.177Z,13.51
2023-05-14T22:08:54.042Z,13.45
2023-05-14T22:11:22.370Z,13.35
2023-05-14T22:13:50.110Z,13.26
2023-05-14T22:16:17.956Z,13.19
2023-05-14T22:18:47.248Z,13.10
2023-05-14T22:21:15.129Z,13.02
2023-05-14T22:23:42.942Z,13.02
2023-05-14T22:26:10.691Z,12.94
2023-05-14T22:28:42.832Z,12.86
2023-05-14T22:31:10.977Z,12.89
2023-05-14T22:33:38.767Z,12.88
2023-05-14T22:36:08.763Z,12.79
2023-05-14T22:38:38.180Z,12.76
2023-05-14T22:41:06.044Z,12.70
2023-05-14T22:43:33.796Z,12.62
2023-05-14T22:46:01.700Z,12.54
2023-05-14T22:48:29.481Z,12.46
2023-05-14T22:50:57.206Z,12.42
2023-05-14T22:53:26.392Z,12.39
2023-05-14T22:55:54.138Z,12.43
2023-05-14T22:58:21.932Z,12.44
2023-05-14T23:00:49.697Z,12.35
2023-05-14T23:03:17.576Z,12.23
2023-05-14T23:05:45.361Z,12.21
2023-05-14T23:08:13.230Z,12.14
2023-05-14T23:10:42.387Z,12.01
2023-05-14T23:13:10.209Z,11.93
2023-05-14T23:15:38.778Z,11.91
2023-05-14T23:18:06.915Z,11.93
2023-05-14T23:20:34.721Z,11.82
2023-05-14T23:23:02.553Z,11.80
2023-05-14T23:25:30.391Z,11.69
2023-05-14T23:27:59.476Z,11.62
2023-05-14T23:30:27.272Z,11.48
2023-05-14T23:32:55.032Z,11.42
2023-05-14T23:35:23.090Z,11.43
2023-05-14T23:37:51.243Z,11.43
2023-05-14T23:40:21.351Z,11.43
2023-05-14T23:42:49.096Z,11.56
2023-05-14T23:45:18.397Z,11.63
2023-05-14T23:47:46.287Z,11.68
2023-05-14T23:50:14.121Z,11.69
2023-05-14T23:52:42.051Z,11.62
2023-05-14T23:55:10.738Z,11.67
2023-05-14T23:57:38.647Z,11.58
